Time;durP1;ratioP1;P1;durP2;ratioP2;P2;SDS_P1;SDS_P2;PMS_P1;PMS_P2;Temp;Humidity;BMP_temperature;BMP_pressure;BME280_temperature;BME280_humidity;BME280_pressure;Samples;Min_cycle;Max_cycle;Signal;HPM_P1;HPM_P2
2021/08/21 00:02:25;;;;;;;12.27;10.23;;;15.10;99.90;;;;;;5095088;28;20397;-74
2021/08/21 00:04:51;;;;;;;11.85;9.93;;;15.10;99.90;;;;;;5092487;28;20396;-74
2021/08/21 00:07:17;;;;;;;12.80;10.20;;;15.00;99.90;;;;;;5092119;28;20469;-76
2021/08/21 00:09:42;;;;;;;15.43;11.00;;;15.00;99.90;;;;;;5092249;28;20428;-74
2021/08/21 00:12:08;;;;;;;14.10;10.03;;;14.90;99.90;;;;;;5091163;28;20393;-74
2021/08/21 00:14:35;;;;;;;14.43;10.43;;;15.00;99.90;;;;;;5096410;28;20377;-76
2021/08/21 00:17:01;;;;;;;16.70;10.10;;;15.10;99.90;;;;;;5095846;28;20450;-74
2021/08/21 00:19:28;;;;;;;14.50;9.73;;;15.10;99.90;;;;;;5095473;28;20790;-74
2021/08/21 00:21:53;;;;;;;13.80;9.85;;;15.00;99.90;;;;;;5098588;28;20382;-75
2021/08/21 00:24:19;;;;;;;12.77;9.73;;;15.10;99.90;;;;;;5094813;28;20385;-75
2021/08/21 00:26:45;;;;;;;16.85;10.32;;;15.00;99.90;;;;;;5092231;28;20378;-75
2021/08/21 00:29:12;;;;;;;12.15;9.63;;;14.90;99.90;;;;;;5091986;28;20397;-75
2021/08/21 00:31:37;;;;;;;11.75;9.80;;;14.90;99.90;;;;;;5124030;22;20396;-72
2021/08/21 00:34:04;;;;;;;14.70;10.07;;;14.90;99.90;;;;;;5069497;28;20394;-71
2021/08/21 00:36:30;;;;;;;12.23;9.00;;;15.00;99.90;;;;;;5071036;28;20395;-71
2021/08/21 00:38:55;;;;;;;16.17;9.98;;;14.90;99.90;;;;;;5070385;28;20411;-71
2021/08/21 00:41:21;;;;;;;12.10;9.10;;;14.90;99.90;;;;;;5070606;28;20425;-71
2021/08/21 00:43:47;;;;;;;12.35;9.73;;;15.00;99.90;;;;;;5070625;28;20500;-71
2021/08/21 00:46:13;;;;;;;18.37;8.70;;;14.90;99.90;;;;;;5053105;28;20702;-71
2021/08/21 00:48:38;;;;;;;10.83;8.37;;;14.70;99.90;;;;;;5071629;28;20272;-71
2021/08/21 00:51:04;;;;;;;16.43;9.40;;;14.70;99.90;;;;;;5071808;28;20173;-71
2021/08/21 00:53:31;;;;;;;13.27;8.37;;;14.70;99.90;;;;;;5071727;28;20200;-71
2021/08/21 00:55:58;;;;;;;11.65;9.65;;;14.70;99.90;;;;;;5070497;28;20387;-72
2021/08/21 00:58:24;;;;;;;10.53;8.80;;;14.70;99.90;;;;;;5071543;28;20923;-71
2021/08/21 01:00:51;;;;;;;12.37;9.53;;;14.60;99.90;;;;;;5071756;28;20520;-71
2021/08/21 01:03:16;;;;;;;14.52;10.10;;;14.60;99.90;;;;;;5070501;28;20399;-72
2021/08/21 01:05:42;;;;;;;10.93;8.03;;;14.60;99.90;;;;;;5071559;28;20163;-71
2021/08/21 01:08:08;;;;;;;10.47;8.33;;;14.70;99.90;;;;;;5071474;28;20581;-71
2021/08/21 01:10:33;;;;;;;14.13;9.60;;;14.90;99.90;;;;;;5071433;28;20256;-71
2021/08/21 01:12:59;;;;;;;11.63;9.03;;;14.80;99.90;;;;;;5066967;28;20196;-71
2021/08/21 01:15:26;;;;;;;12.83;8.37;;;14.80;99.90;;;;;;5051477;28;20171;-71
2021/08/21 01:17:55;;;;;;;15.83;8.60;;;14.70;99.90;;;;;;5051814;28;20627;-71
2021/08/21 01:20:22;;;;;;;15.10;8.37;;;14.60;99.90;;;;;;5051440;28;20945;-71
2021/08/21 01:22:48;;;;;;;14.30;9.43;;;14.50;99.90;;;;;;5051408;28;20431;-71
2021/08/21 01:25:23;;;;;;;11.07;8.33;;;14.50;99.90;;;;;;5051666;28;20750;-71
2021/08/21 01:27:48;;;;;;;14.70;8.40;;;14.40;99.90;;;;;;5060150;28;20171;-71
2021/08/21 01:30:14;;;;;;;10.80;8.10;;;14.40;99.90;;;;;;5071619;28;20433;-71
2021/08/21 01:32:40;;;;;;;11.27;8.40;;;14.50;99.90;;;;;;5071478;28;20300;-71
2021/08/21 01:35:07;;;;;;;11.20;8.90;;;14.50;99.90;;;;;;5071538;28;20295;-71
2021/08/21 01:37:33;;;;;;;15.83;9.00;;;14.50;99.90;;;;;;5071092;28;20171;-71
2021/08/21 01:39:59;;;;;;;9.70;7.00;;;14.40;99.90;;;;;;5071519;28;20472;-71
2021/08/21 01:42:25;;;;;;;10.40;8.40;;;14.30;99.90;;;;;;5070910;28;20199;-71
2021/08/21 01:44:52;;;;;;;15.73;8.23;;;14.30;99.90;;;;;;5071267;28;20705;-71
2021/08/21 01:47:18;;;;;;;9.63;7.53;;;14.30;99.90;;;;;;5071083;28;20439;-71
2021/08/21 01:49:58;;;;;;;11.73;8.10;;;14.30;99.90;;;;;;5071708;28;20447;-71
2021/08/21 01:52:27;;;;;;;14.50;7.80;;;14.30;99.90;;;;;;5074063;28;20503;-71
2021/08/21 01:54:53;;;;;;;8.70;7.80;;;14.30;99.90;;;;;;5075232;28;20783;-71
2021/08/21 01:57:19;;;;;;;13.80;8.90;;;14.20;99.90;;;;;;5074660;28;20426;-71
2021/08/21 01:59:46;;;;;;;15.43;8.67;;;14.10;99.90;;;;;;5053228;28;20239;-71
2021/08/21 02:02:17;;;;;;;12.60;9.00;;;14.10;99.90;;;;;;5068875;28;20291;-71
2021/08/21 02:04:43;;;;;;;12.20;7.43;;;14.10;99.90;;;;;;5074873;28;20452;-71
2021/08/21 02:07:09;;;;;;;11.60;8.47;;;14.10;99.90;;;;;;5075089;28;20432;-71
2021/08/21 02:09:35;;;;;;;16.23;7.90;;;14.10;99.90;;;;;;5074546;28;20170;-71
2021/08/21 02:12:03;;;;;;;11.30;9.23;;;14.00;99.90;;;;;;5074743;28;20426;-71
2021/08/21 02:14:29;;;;;;;13.10;8.37;;;14.10;99.90;;;;;;5074707;28;20406;-71
2021/08/21 02:16:58;;;;;;;10.17;8.63;;;14.20;99.90;;;;;;5074750;28;20411;-71
2021/08/21 02:19:24;;;;;;;11.40;8.37;;;14.20;99.90;;;;;;5074361;28;20453;-71
2021/08/21 02:21:52;;;;;;;12.67;7.80;;;14.30;99.90;;;;;;5074490;28;20420;-71
2021/08/21 02:24:24;;;;;;;13.00;8.47;;;14.30;99.90;;;;;;5074090;28;20440;-71
2021/08/21 02:26:50;;;;;;;13.93;9.00;;;14.20;99.90;;;;;;5074711;28;20412;-71
2021/08/21 02:29:16;;;;;;;15.83;9.63;;;14.10;99.90;;;;;;5074072;28;20925;-71
2021/08/21 02:31:41;;;;;;;12.53;9.17;;;14.10;99.90;;;;;;5074110;28;20446;-71
2021/08/21 02:34:07;;;;;;;12.40;8.70;;;14.00;99.90;;;;;;5074163;28;20175;-73
2021/08/21 02:36:33;;;;;;;11.50;8.40;;;14.00;99.90;;;;;;5074210;28;20174;-73
2021/08/21 02:39:00;;;;;;;16.67;9.20;;;14.00;99.90;;;;;;5073686;28;20254;-72
2021/08/21 02:41:26;;;;;;;12.17;8.20;;;13.90;99.90;;;;;;5073953;28;20886;-72
2021/08/21 02:43:51;;;;;;;17.53;8.60;;;13.90;99.90;;;;;;5074199;28;20433;-72
2021/08/21 02:46:17;;;;;;;14.23;10.20;;;14.00;99.90;;;;;;5074075;28;20419;-73
2021/08/21 02:48:43;;;;;;;10.90;8.80;;;14.10;99.90;;;;;;5073894;28;20226;-72
2021/08/21 02:51:08;;;;;;;17.00;9.30;;;14.00;99.90;;;;;;5074556;28;20911;-72
2021/08/21 02:53:34;;;;;;;13.60;9.07;;;14.00;99.90;;;;;;5074136;28;20203;-73
2021/08/21 02:56:02;;;;;;;14.67;8.83;;;13.90;99.90;;;;;;5074257;28;20262;-73
2021/08/21 02:58:28;;;;;;;16.48;10.90;;;13.90;99.90;;;;;;5072227;28;20410;-73
2021/08/21 03:00:54;;;;;;;16.75;12.15;;;13.90;99.90;;;;;;5072712;28;20702;-72
2021/08/21 03:03:20;;;;;;;17.00;11.90;;;14.00;99.90;;;;;;5072562;28;20894;-72
2021/08/21 03:05:45;;;;;;;19.27;11.68;;;14.10;99.90;;;;;;5072438;28;20736;-72
2021/08/21 03:08:11;;;;;;;15.80;12.05;;;14.10;99.90;;;;;;5054286;28;20395;-72
2021/08/21 03:10:37;;;;;;;16.00;12.13;;;14.10;99.90;;;;;;5071939;28;20906;-72
2021/08/21 03:13:03;;;;;;;13.85;10.68;;;14.20;99.90;;;;;;5072300;28;20478;-72
2021/08/21 03:15:28;;;;;;;17.38;11.25;;;14.20;99.90;;;;;;5072638;28;20372;-72
2021/08/21 03:17:56;;;;;;;17.57;11.30;;;14.10;99.90;;;;;;5071991;28;20813;-72
2021/08/21 03:20:22;;;;;;;17.17;11.05;;;14.10;99.90;;;;;;5072188;28;20403;-72
2021/08/21 03:22:48;;;;;;;16.92;12.40;;;14.10;99.90;;;;;;5055922;28;20390;-73
2021/08/21 03:25:14;;;;;;;16.65;12.95;;;14.00;99.90;;;;;;5052231;28;20727;-72
2021/08/21 03:27:39;;;;;;;18.88;12.70;;;13.90;99.90;;;;;;5059639;28;20886;-73
2021/08/21 03:30:06;;;;;;;21.93;13.10;;;13.90;99.90;;;;;;5071892;28;20487;-71
2021/08/21 03:32:32;;;;;;;19.83;12.60;;;13.90;99.90;;;;;;5071627;28;20462;-71
2021/08/21 03:34:58;;;;;;;20.13;14.57;;;14.10;99.90;;;;;;5072039;28;20376;-73
2021/08/21 03:37:23;;;;;;;19.90;13.63;;;14.30;99.90;;;;;;5071314;28;20388;-73
2021/08/21 03:39:49;;;;;;;23.88;12.55;;;14.20;99.90;;;;;;5071799;28;20888;-72
2021/08/21 03:42:16;;;;;;;22.55;13.60;;;14.10;99.90;;;;;;5054049;28;20883;-72
2021/08/21 03:44:42;;;;;;;22.07;13.50;;;14.00;99.90;;;;;;5071985;28;20376;-72
2021/08/21 03:47:08;;;;;;;21.92;13.13;;;14.00;99.90;;;;;;5071850;28;20779;-73
2021/08/21 03:49:33;;;;;;;21.92;14.15;;;14.10;99.90;;;;;;5071390;28;20952;-73
2021/08/21 03:51:59;;;;;;;22.40;14.80;;;14.10;99.90;;;;;;5071536;28;20455;-73
2021/08/21 03:54:24;;;;;;;26.95;15.35;;;14.20;99.90;;;;;;5071739;28;20799;-73
2021/08/21 03:56:50;;;;;;;25.13;15.32;;;14.30;99.90;;;;;;5075962;28;20405;-73
2021/08/21 03:59:16;;;;;;;22.75;15.40;;;14.30;99.90;;;;;;5076094;28;20407;-73
2021/08/21 04:01:41;;;;;;;27.40;15.30;;;14.40;99.90;;;;;;5077502;28;20891;-72
2021/08/21 04:04:07;;;;;;;24.17;15.40;;;14.50;99.90;;;;;;5073020;28;20387;-72
2021/08/21 04:06:32;;;;;;;23.37;15.63;;;14.70;99.90;;;;;;5071229;28;20391;-73
2021/08/21 04:08:58;;;;;;;27.95;16.50;;;14.70;99.90;;;;;;5071208;28;20495;-73
2021/08/21 04:11:23;;;;;;;16.70;11.70;;;14.80;99.90;;;;;;5072504;28;20665;-73
2021/08/21 04:13:49;;;;;;;20.27;12.60;;;14.90;99.90;;;;;;5071688;28;20190;-71
2021/08/21 04:16:14;;;;;;;23.43;13.67;;;14.90;99.90;;;;;;5072310;28;20174;-71
2021/08/21 04:18:40;;;;;;;25.60;13.53;;;15.00;99.90;;;;;;5071108;28;20282;-72
2021/08/21 04:21:05;;;;;;;18.67;12.27;;;15.10;99.90;;;;;;5071877;28;20171;-71
2021/08/21 04:23:31;;;;;;;17.07;12.47;;;15.10;99.90;;;;;;5072078;28;20270;-71
2021/08/21 04:25:59;;;;;;;22.63;12.40;;;15.20;99.90;;;;;;5072136;28;20581;-71
2021/08/21 04:28:29;;;;;;;20.67;12.87;;;15.30;99.90;;;;;;5071932;28;20174;-70
2021/08/21 04:30:56;;;;;;;26.00;13.17;;;15.40;99.40;;;;;;5072019;28;20452;-72
2021/08/21 04:33:21;;;;;;;16.60;11.70;;;15.40;99.80;;;;;;5071821;28;20471;-71
2021/08/21 04:35:47;;;;;;;25.17;13.10;;;15.40;99.00;;;;;;5072098;28;20890;-71
2021/08/21 04:38:13;;;;;;;17.77;12.50;;;15.50;98.50;;;;;;5071933;28;20170;-71
2021/08/21 04:40:38;;;;;;;18.17;11.37;;;15.50;97.90;;;;;;5058223;28;20510;-72
2021/08/21 04:43:04;;;;;;;21.67;12.87;;;15.60;97.50;;;;;;5052117;28;20197;-72
2021/08/21 04:45:30;;;;;;;16.90;12.00;;;15.60;97.30;;;;;;5051924;28;20165;-72
2021/08/21 04:47:55;;;;;;;20.77;11.63;;;15.70;96.30;;;;;;5064478;28;20182;-72
2021/08/21 04:50:21;;;;;;;17.80;12.40;;;15.80;94.50;;;;;;5071777;28;20429;-73
2021/08/21 04:52:46;;;;;;;16.43;12.40;;;15.90;93.90;;;;;;5072334;28;20190;-73
2021/08/21 04:55:12;;;;;;;21.90;12.63;;;15.90;91.60;;;;;;5072257;28;20174;-72
2021/08/21 04:57:38;;;;;;;18.43;11.60;;;16.00;89.60;;;;;;5072479;28;20181;-72
2021/08/21 05:00:05;;;;;;;17.57;12.03;;;16.10;88.40;;;;;;5072240;28;20717;-73
2021/08/21 05:02:31;;;;;;;26.90;12.10;;;16.20;87.80;;;;;;5071407;28;20199;-73
2021/08/21 05:04:56;;;;;;;26.63;12.10;;;16.20;85.80;;;;;;5071549;28;20901;-73
2021/08/21 05:07:22;;;;;;;93.97;13.20;;;16.30;84.50;;;;;;5072012;28;20178;-72
2021/08/21 05:09:47;;;;;;;17.27;11.77;;;16.30;81.60;;;;;;5071613;28;20181;-72
2021/08/21 05:12:13;;;;;;;17.57;10.67;;;16.40;81.10;;;;;;5071607;28;20221;-71
2021/08/21 05:14:38;;;;;;;21.00;11.77;;;16.40;80.50;;;;;;5071522;28;20162;-73
2021/08/21 05:17:05;;;;;;;18.40;11.03;;;16.50;79.30;;;;;;5050081;28;20170;-72
2021/08/21 05:19:36;;;;;;;17.20;11.40;;;16.50;77.50;;;;;;5051251;28;20195;-72
2021/08/21 05:24:45;;;;;;;27.93;12.27;;;16.60;77.00;;;;;;5051859;28;20474;-72
2021/08/21 05:27:11;;;;;;;19.30;10.60;;;16.60;75.90;;;;;;5057513;28;20788;-72
2021/08/21 05:29:37;;;;;;;20.53;11.23;;;16.70;76.00;;;;;;5075089;28;20179;-72
2021/08/21 05:32:04;;;;;;;18.90;10.90;;;16.70;74.20;;;;;;5075486;28;20206;-72
2021/08/21 05:34:30;;;;;;;22.80;13.85;;;16.70;74.10;;;;;;5074502;28;20384;-73
2021/08/21 05:36:55;;;;;;;20.50;13.50;;;16.70;73.30;;;;;;5074243;28;20391;-73
2021/08/21 05:39:21;;;;;;;21.63;12.93;;;16.70;73.00;;;;;;5053471;28;20466;-73
2021/08/21 05:41:46;;;;;;;18.38;13.45;;;16.70;72.50;;;;;;5054127;28;20392;-73
2021/08/21 05:44:12;;;;;;;20.45;13.73;;;16.80;72.90;;;;;;5054410;28;20377;-72
2021/08/21 05:46:37;;;;;;;20.97;13.50;;;16.90;72.60;;;;;;5054109;28;20400;-72
2021/08/21 05:49:03;;;;;;;20.13;12.97;;;16.90;71.70;;;;;;5054228;28;20390;-72
2021/08/21 05:51:29;;;;;;;18.88;13.23;;;17.00;70.00;;;;;;5054144;28;20385;-70
2021/08/21 05:53:56;;;;;;;18.98;13.15;;;17.00;68.30;;;;;;5036188;28;20385;-72
2021/08/21 05:56:21;;;;;;;19.08;12.38;;;17.20;67.70;;;;;;5053928;28;20381;-72
2021/08/21 05:58:47;;;;;;;17.60;12.60;;;17.20;66.60;;;;;;5062738;28;20411;-71
2021/08/21 06:01:12;;;;;;;16.37;11.90;;;17.30;65.10;;;;;;5074059;28;20380;-71
2021/08/21 06:03:38;;;;;;;17.83;11.83;;;17.40;64.40;;;;;;5073576;28;20384;-71
2021/08/21 06:06:04;;;;;;;16.83;12.40;;;17.40;63.70;;;;;;5074104;28;20401;-71
2021/08/21 06:08:29;;;;;;;18.70;11.80;;;17.60;62.80;;;;;;5073832;28;20379;-71
2021/08/21 06:10:57;;;;;;;19.30;12.13;;;17.60;60.70;;;;;;5074673;28;20375;-71
2021/08/21 06:13:23;;;;;;;18.02;11.73;;;17.70;60.40;;;;;;5074152;28;20390;-71
2021/08/21 06:15:48;;;;;;;15.80;12.10;;;17.80;60.70;;;;;;5073628;28;20391;-71
2021/08/21 06:18:14;;;;;;;17.75;11.70;;;17.80;59.90;;;;;;5073277;28;20386;-72
2021/08/21 06:20:40;;;;;;;17.80;12.50;;;17.90;59.40;;;;;;5073719;28;20884;-72
2021/08/21 06:23:05;;;;;;;14.80;10.70;;;17.90;59.20;;;;;;5073389;28;20882;-75
2021/08/21 06:25:31;;;;;;;15.90;11.53;;;18.00;58.10;;;;;;5073110;28;20408;-73
2021/08/21 06:27:57;;;;;;;16.25;11.70;;;18.00;57.30;;;;;;5072310;28;20872;-73
2021/08/21 06:30:23;;;;;;;14.32;11.00;;;18.00;57.10;;;;;;5072545;28;20423;-75
2021/08/21 06:32:48;;;;;;;16.73;11.30;;;18.00;57.00;;;;;;5085462;22;20491;-77
2021/08/21 06:35:14;;;;;;;15.35;11.30;;;18.00;57.10;;;;;;5062836;28;20636;-77
2021/08/21 06:37:39;;;;;;;16.30;11.00;;;18.00;56.20;;;;;;5061546;28;20444;-77
2021/08/21 06:40:06;;;;;;;21.27;11.50;;;17.90;57.70;;;;;;5045340;28;20418;-76
2021/08/21 06:42:32;;;;;;;16.48;11.35;;;18.00;57.10;;;;;;5069633;28;20405;-77
2021/08/21 06:44:57;;;;;;;18.15;11.27;;;18.00;56.90;;;;;;5053268;28;20385;-76
2021/08/21 06:47:23;;;;;;;15.90;11.27;;;17.90;58.20;;;;;;5058801;28;20398;-76
2021/08/21 06:49:48;;;;;;;17.63;11.67;;;17.90;58.50;;;;;;5054313;28;20480;-74
2021/08/21 06:52:14;;;;;;;16.98;12.60;;;17.90;58.40;;;;;;5058546;28;20398;-75
2021/08/21 06:54:39;;;;;;;18.13;12.23;;;18.00;57.70;;;;;;5064140;28;20455;-76
2021/08/21 06:57:05;;;;;;;17.27;12.23;;;18.00;57.20;;;;;;5057357;28;20410;-75
2021/08/21 06:59:31;;;;;;;16.07;11.70;;;18.20;56.40;;;;;;5064354;28;20433;-76
2021/08/21 07:01:56;;;;;;;18.15;11.65;;;18.20;55.10;;;;;;5061898;28;20395;-76
2021/08/21 07:04:22;;;;;;;15.10;11.63;;;18.40;54.50;;;;;;5054721;28;20389;-78
2021/08/21 07:06:47;;;;;;;18.20;12.17;;;18.50;54.20;;;;;;5049969;28;20509;-76
2021/08/21 07:09:13;;;;;;;18.08;11.15;;;18.60;53.40;;;;;;5055657;28;20392;-75
2021/08/21 07:11:38;;;;;;;18.02;10.75;;;18.70;53.00;;;;;;5057020;28;20405;-76
2021/08/21 07:14:04;;;;;;;12.67;10.50;;;18.70;52.00;;;;;;5066438;28;20396;-77
2021/08/21 07:16:30;;;;;;;17.35;11.18;;;18.90;50.90;;;;;;5053903;28;20828;-77
2021/08/21 07:18:55;;;;;;;14.52;10.13;;;19.00;50.10;;;;;;5053629;28;20405;-77
2021/08/21 07:21:22;;;;;;;13.73;9.90;;;19.10;49.30;;;;;;5052098;28;20382;-76
2021/08/21 07:23:48;;;;;;;11.98;9.88;;;19.20;48.70;;;;;;5060580;28;20400;-76
2021/08/21 07:26:13;;;;;;;13.50;9.90;;;19.40;47.60;;;;;;5067705;28;20388;-76
2021/08/21 07:28:39;;;;;;;17.75;9.52;;;19.60;46.40;;;;;;5055615;28;20435;-76
2021/08/21 07:31:04;;;;;;;12.30;10.00;;;19.70;46.40;;;;;;5055968;28;20393;-76
2021/08/21 07:33:30;;;;;;;15.90;9.83;;;19.80;45.40;;;;;;5062413;28;20475;-77
2021/08/21 07:35:56;;;;;;;14.38;8.70;;;19.90;45.60;;;;;;5066993;28;20426;-75
2021/08/21 07:38:22;;;;;;;9.03;7.93;;;20.00;45.10;;;;;;5054986;28;20175;-73
2021/08/21 07:40:47;;;;;;;13.87;9.10;;;20.10;43.70;;;;;;5059127;28;20177;-74
2021/08/21 07:43:13;;;;;;;11.67;8.77;;;20.10;44.70;;;;;;5053465;28;20445;-76
2021/08/21 07:45:39;;;;;;;13.63;10.40;;;20.10;44.20;;;;;;5050928;28;20206;-77
2021/08/21 07:48:05;;;;;;;12.43;9.80;;;20.10;44.60;;;;;;5051575;28;20180;-74
2021/08/21 07:50:30;;;;;;;17.90;9.57;;;20.20;44.10;;;;;;5051196;28;20191;-76
2021/08/21 07:52:56;;;;;;;14.80;8.93;;;20.30;43.30;;;;;;5052473;28;20444;-75
2021/08/21 07:55:21;;;;;;;12.37;8.93;;;20.30;43.10;;;;;;5052791;28;20222;-74
2021/08/21 07:57:47;;;;;;;12.07;10.50;;;20.40;42.70;;;;;;5052201;28;20576;-77
2021/08/21 08:00:13;;;;;;;11.43;9.33;;;20.50;42.60;;;;;;5034698;28;20226;-76
2021/08/21 08:02:44;;;;;;;13.60;8.57;;;20.60;42.50;;;;;;5052150;28;20288;-76
2021/08/21 08:05:10;;;;;;;16.57;8.20;;;20.80;41.70;;;;;;5052502;28;20424;-74
2021/08/21 08:07:36;;;;;;;8.13;6.97;;;20.90;40.50;;;;;;5052089;28;20913;-73
2021/08/21 08:10:01;;;;;;;10.27;7.77;;;21.00;40.10;;;;;;5052369;28;20670;-75
2021/08/21 08:12:27;;;;;;;15.07;8.50;;;20.90;39.80;;;;;;5052323;28;20250;-75
2021/08/21 08:14:53;;;;;;;9.30;7.47;;;21.00;39.50;;;;;;5052316;28;20181;-74
2021/08/21 08:17:18;;;;;;;8.43;7.57;;;21.10;40.00;;;;;;5052068;28;20641;-75
2021/08/21 08:19:44;;;;;;;10.30;7.10;;;21.20;40.20;;;;;;5067437;28;20255;-76
2021/08/21 08:22:09;;;;;;;14.60;6.73;;;21.40;39.30;;;;;;5051995;28;20191;-76
2021/08/21 08:24:35;;;;;;;9.33;6.80;;;21.50;39.00;;;;;;5050891;28;20376;-76
2021/08/21 08:27:00;;;;;;;10.73;7.87;;;21.60;38.50;;;;;;5051826;28;20177;-75
2021/08/21 08:29:26;;;;;;;8.43;6.50;;;21.70;37.20;;;;;;5034111;28;20236;-75
2021/08/21 08:31:51;;;;;;;7.63;5.97;;;21.70;36.70;;;;;;5052103;28;20203;-75
2021/08/21 08:34:17;;;;;;;8.10;5.87;;;21.80;36.20;;;;;;5033306;28;20243;-76
2021/08/21 08:36:43;;;;;;;11.13;6.27;;;22.00;36.20;;;;;;5050642;28;20276;-76
2021/08/21 08:39:08;;;;;;;9.50;6.40;;;22.20;35.00;;;;;;5051178;28;20214;-75
2021/08/21 08:41:35;;;;;;;9.57;6.07;;;22.30;34.40;;;;;;5051215;28;20195;-76
2021/08/21 08:44:02;;;;;;;7.90;6.70;;;22.40;34.10;;;;;;5050609;28;20385;-75
2021/08/21 08:46:27;;;;;;;8.27;6.70;;;22.50;33.20;;;;;;5050206;28;20393;-75
2021/08/21 08:48:54;;;;;;;8.20;7.27;;;22.60;32.90;;;;;;5050305;28;20396;-76
2021/08/21 08:51:20;;;;;;;8.32;6.13;;;22.80;32.70;;;;;;5032904;28;20413;-76
2021/08/21 08:53:46;;;;;;;11.27;7.18;;;22.90;32.40;;;;;;5051170;28;20448;-76
2021/08/21 08:56:12;;;;;;;9.25;6.57;;;22.90;31.50;;;;;;5050555;28;20393;-75
2021/08/21 08:58:37;;;;;;;12.27;6.20;;;22.90;31.10;;;;;;5050050;28;20397;-74
2021/08/21 09:01:03;;;;;;;10.27;6.65;;;22.90;31.30;;;;;;5051323;28;20850;-78
2021/08/21 09:03:29;;;;;;;9.70;6.37;;;22.90;30.90;;;;;;5051683;28;20428;-76
2021/08/21 09:05:55;;;;;;;8.95;6.70;;;22.90;31.30;;;;;;5050912;28;20397;-76
2021/08/21 09:08:26;;;;;;;8.38;6.55;;;22.90;30.80;;;;;;5027427;28;20391;-75
2021/08/21 09:10:54;;;;;;;7.28;6.07;;;22.90;31.50;;;;;;5029231;28;20393;-75
2021/08/21 09:13:20;;;;;;;9.70;5.93;;;22.90;30.40;;;;;;5028905;28;20895;-77
2021/08/21 09:15:51;;;;;;;10.95;6.40;;;23.10;31.00;;;;;;5030729;28;20398;-76
2021/08/21 09:18:20;;;;;;;8.10;5.90;;;23.10;30.50;;;;;;5039011;28;20398;-76
2021/08/21 09:20:48;;;;;;;8.40;5.47;;;23.00;30.10;;;;;;5050271;28;20867;-76
2021/08/21 09:23:31;;;;;;;6.43;5.67;;;23.00;30.40;;;;;;5049918;28;20393;-76
2021/08/21 09:26:07;;;;;;;7.97;5.90;;;23.10;29.90;;;;;;5049978;28;20401;-76
2021/08/21 09:28:34;;;;;;;6.67;5.20;;;23.20;30.00;;;;;;5050281;28;20488;-75
2021/08/21 09:31:21;;;;;;;8.45;5.63;;;23.30;29.60;;;;;;5050691;28;20390;-76
2021/08/21 09:33:57;;;;;;;8.95;5.07;;;23.30;29.30;;;;;;5049822;28;20516;-76
2021/08/21 09:36:34;;;;;;;6.47;5.20;;;23.30;29.50;;;;;;5050277;28;20960;-77
2021/08/21 09:39:02;;;;;;;4.80;4.30;;;23.40;27.60;;;;;;5064732;28;20416;-73
2021/08/21 09:41:28;;;;;;;6.47;5.03;;;23.40;27.90;;;;;;5030317;28;20380;-76
2021/08/21 09:44:05;;;;;;;5.63;5.03;;;23.50;28.20;;;;;;5048054;28;20385;-75
2021/08/21 09:46:31;;;;;;;5.22;4.60;;;23.50;29.00;;;;;;5050070;28;20890;-75
2021/08/21 09:49:02;;;;;;;5.18;4.43;;;23.50;27.70;;;;;;5050154;28;20396;-75
2021/08/21 09:51:38;;;;;;;4.60;3.85;;;23.40;28.20;;;;;;5049900;28;20845;-73
2021/08/21 09:54:08;;;;;;;5.80;4.20;;;23.50;26.60;;;;;;5049443;28;20428;-75
2021/08/21 09:56:39;;;;;;;5.97;4.68;;;23.60;26.70;;;;;;5049847;28;20467;-77
2021/08/21 09:59:07;;;;;;;4.40;3.30;;;23.70;27.10;;;;;;5032144;28;21018;-76
2021/08/21 10:01:34;;;;;;;5.43;3.58;;;23.70;26.30;;;;;;5049520;28;20741;-75
2021/08/21 10:04:01;;;;;;;3.88;3.17;;;23.90;25.50;;;;;;5049323;28;20413;-73
2021/08/21 10:06:27;;;;;;;3.92;2.95;;;24.00;24.10;;;;;;5049624;28;20389;-75
2021/08/21 10:08:58;;;;;;;5.97;3.80;;;24.10;24.50;;;;;;5049545;28;20481;-76
2021/08/21 10:11:24;;;;;;;5.00;3.60;;;24.10;24.20;;;;;;5049680;28;20878;-74
2021/08/21 10:13:50;;;;;;;5.32;3.70;;;24.20;22.90;;;;;;5034478;28;20408;-73
2021/08/21 10:16:15;;;;;;;4.47;3.40;;;24.30;23.30;;;;;;5053690;28;20421;-74
2021/08/21 10:18:42;;;;;;;4.40;3.37;;;24.40;23.70;;;;;;5052746;28;20946;-74
2021/08/21 10:21:08;;;;;;;3.60;3.30;;;24.40;22.50;;;;;;5053758;28;20384;-74
2021/08/21 10:23:34;;;;;;;5.55;3.28;;;24.40;22.50;;;;;;5053922;28;20394;-76
2021/08/21 10:26:13;;;;;;;8.40;3.47;;;24.50;22.40;;;;;;5053366;28;20381;-74
2021/08/21 10:28:40;;;;;;;3.97;3.60;;;24.50;21.90;;;;;;5034834;28;20382;-74
2021/08/21 10:31:07;;;;;;;5.40;2.90;;;24.60;22.40;;;;;;5053507;28;20876;-74
2021/08/21 10:33:54;;;;;;;4.55;2.97;;;24.70;22.20;;;;;;5052589;28;20397;-74
2021/08/21 10:36:39;;;;;;;4.00;3.00;;;24.80;22.10;;;;;;5052757;28;20424;-74
2021/08/21 10:39:19;;;;;;;5.22;3.03;;;24.90;20.70;;;;;;5052719;28;20480;-75
2021/08/21 10:41:46;;;;;;;3.95;3.20;;;24.90;20.70;;;;;;5053266;28;20386;-75
2021/08/21 10:44:31;;;;;;;4.45;3.20;;;24.90;22.10;;;;;;5053000;28;20900;-76
2021/08/21 10:46:57;;;;;;;4.75;3.00;;;24.90;21.40;;;;;;5053322;28;20488;-75
2021/08/21 10:49:41;;;;;;;9.10;2.80;;;25.00;20.50;;;;;;5052710;28;20464;-74
2021/08/21 10:52:08;;;;;;;6.40;3.08;;;25.30;20.30;;;;;;5052832;28;20381;-74
2021/08/21 10:54:34;;;;;;;6.13;3.80;;;25.30;20.10;;;;;;5052926;28;20431;-75
2021/08/21 10:57:28;;;;;;;5.03;3.23;;;25.40;20.20;;;;;;5052736;28;20792;-77
2021/08/21 10:59:54;;;;;;;3.47;3.13;;;25.30;20.30;;;;;;5052624;28;20428;-74
2021/08/21 11:02:26;;;;;;;5.07;3.40;;;25.40;20.70;;;;;;5034049;28;20433;-74
2021/08/21 11:04:55;;;;;;;6.90;4.00;;;25.60;19.50;;;;;;5034510;28;20386;-74
2021/08/21 11:07:30;;;;;;;3.78;3.45;;;25.70;19.00;;;;;;5034328;28;20720;-75
2021/08/21 11:10:11;;;;;;;3.55;3.25;;;25.80;19.80;;;;;;5052583;28;20441;-74
2021/08/21 11:12:37;;;;;;;3.35;3.05;;;25.90;18.80;;;;;;5051913;28;20392;-75
2021/08/21 11:15:16;;;;;;;5.95;3.33;;;26.00;19.70;;;;;;5052314;28;21193;-75
2021/08/21 11:17:42;;;;;;;4.22;3.13;;;26.10;18.00;;;;;;5052018;28;20389;-76
2021/08/21 11:20:26;;;;;;;3.78;3.10;;;26.10;19.20;;;;;;5052283;28;20928;-76
2021/08/21 11:23:07;;;;;;;3.30;3.10;;;26.00;18.30;;;;;;5052056;28;20999;-75
2021/08/21 11:25:34;;;;;;;3.55;2.70;;;26.10;17.60;;;;;;5052223;28;20384;-76
2021/08/21 11:28:20;;;;;;;4.05;2.90;;;26.10;18.20;;;;;;5051416;28;20881;-74
2021/08/21 11:31:12;;;;;;;4.65;3.33;;;26.10;18.40;;;;;;5051505;28;20431;-75
2021/08/21 11:33:41;;;;;;;5.60;3.00;;;26.30;17.80;;;;;;5051661;28;20813;-75
2021/08/21 11:36:08;;;;;;;5.22;2.88;;;26.10;17.60;;;;;;5051620;28;20474;-74
2021/08/21 11:38:36;;;;;;;3.10;2.25;;;26.00;18.10;;;;;;5051573;28;20847;-75
2021/08/21 11:41:10;;;;;;;3.47;3.10;;;26.10;17.90;;;;;;5051515;28;20428;-75
2021/08/21 11:43:40;;;;;;;8.15;4.63;;;26.30;17.30;;;;;;5051589;28;20428;-74
2021/08/21 11:46:06;;;;;;;2.83;2.60;;;26.50;17.80;;;;;;5051926;28;20378;-74
2021/08/21 11:48:33;;;;;;;2.95;2.65;;;26.80;17.30;;;;;;5051936;28;20386;-75
2021/08/21 11:51:00;;;;;;;5.50;3.33;;;27.00;16.30;;;;;;5054024;28;20390;-77
2021/08/21 11:53:31;;;;;;;2.80;2.60;;;27.10;16.50;;;;;;5052998;28;20393;-77
2021/08/21 11:55:58;;;;;;;2.90;2.70;;;27.10;16.10;;;;;;5052326;28;20384;-76
2021/08/21 11:58:37;;;;;;;2.88;2.30;;;26.80;15.70;;;;;;5051902;28;20390;-76
2021/08/21 12:01:11;;;;;;;3.97;2.90;;;26.80;15.80;;;;;;5051904;28;20389;-73
2021/08/21 12:06:30;;;;;;;4.90;3.10;;;26.90;16.10;;;;;;5051649;28;20789;-78
2021/08/21 12:09:16;;;;;;;3.50;2.70;;;26.90;16.30;;;;;;5050714;28;20435;-74
2021/08/21 12:11:44;;;;;;;3.40;3.10;;;27.10;16.50;;;;;;5051294;28;20381;-75
2021/08/21 12:14:11;;;;;;;3.10;2.90;;;27.10;15.80;;;;;;5051601;28;20393;-75
2021/08/21 12:16:38;;;;;;;3.60;2.50;;;27.20;16.00;;;;;;5051389;28;20405;-75
2021/08/21 12:19:04;;;;;;;3.25;2.80;;;27.40;16.10;;;;;;5051390;28;20452;-75
2021/08/21 12:21:33;;;;;;;2.88;2.67;;;27.30;15.00;;;;;;5050062;28;20653;-76
2021/08/21 12:23:59;;;;;;;2.83;2.63;;;27.30;15.00;;;;;;5031614;28;20407;-75
2021/08/21 12:26:39;;;;;;;4.50;4.10;;;27.10;16.10;;;;;;5033527;28;20404;-74
2021/08/21 12:29:18;;;;;;;4.15;2.72;;;27.00;16.30;;;;;;5049466;28;20385;-76
2021/08/21 12:31:44;;;;;;;4.65;3.28;;;26.90;15.90;;;;;;5066186;28;20385;-76
2021/08/21 12:34:20;;;;;;;3.50;3.20;;;26.90;16.30;;;;;;5054420;28;20897;-76
2021/08/21 12:36:46;;;;;;;8.27;4.30;;;26.70;16.00;;;;;;5050743;28;20386;-77
2021/08/21 12:39:18;;;;;;;6.82;4.40;;;26.70;16.70;;;;;;5050151;28;20402;-75
2021/08/21 12:42:02;;;;;;;3.33;2.95;;;27.00;16.70;;;;;;5043547;28;20485;-75
2021/08/21 12:44:39;;;;;;;3.28;2.80;;;27.20;16.10;;;;;;5051677;28;20393;-76